sensor_id;sensor_type;location;lat;lon;timestamp;pressure;altitude;pressure_sealevel;temperature;humidity
37852;BME280;23691;52.486;4.650;2023-05-20T00:02:14;102702.41;;;14.68;58.91
37852;BME280;23691;52.486;4.650;2023-05-20T00:04:40;102696.88;;;14.69;58.99
37852;BME280;23691;52.486;4.650;2023-05-20T00:07:06;102695.88;;;14.70;58.99
37852;BME280;23691;52.486;4.650;2023-05-20T00:09:31;102693.34;;;14.69;59.14
37852;BME280;23691;52.486;4.650;2023-05-20T00:11:57;102694.91;;;14.62;59.28
37852;BME280;23691;52.486;4.650;2023-05-20T00:14:22;102691.38;;;14.61;59.50
37852;BME280;23691;52.486;4.650;2023-05-20T00:16:47;102700.16;;;14.63;59.50
37852;BME280;23691;52.486;4.650;2023-05-20T00:19:13;102694.22;;;14.59;59.47
37852;BME280;23691;52.486;4.650;2023-05-20T00:21:38;102692.50;;;14.58;59.72
37852;BME280;23691;52.486;4.650;2023-05-20T00:24:03;102688.84;;;14.59;59.65
37852;BME280;23691;52.486;4.650;2023-05-20T00:26:29;102687.13;;;14.58;59.89
37852;BME280;23691;52.486;4.650;2023-05-20T00:28:54;102688.13;;;14.48;60.20
37852;BME280;23691;52.486;4.650;2023-05-20T00:31:20;102687.56;;;14.44;60.12
37852;BME280;23691;52.486;4.650;2023-05-20T00:33:45;102687.13;;;14.39;60.55
37852;BME280;23691;52.486;4.650;2023-05-20T00:36:11;102686.59;;;14.35;60.55
37852;BME280;23691;52.486;4.650;2023-05-20T00:38:36;102690.13;;;14.36;60.67
37852;BME280;23691;52.486;4.650;2023-05-20T00:41:01;102688.44;;;14.35;60.75
37852;BME280;23691;52.486;4.650;2023-05-20T00:43:27;102688.44;;;14.35;61.09
37852;BME280;23691;52.486;4.650;2023-05-20T00:45:52;102690.00;;;14.37;60.90
37852;BME280;23691;52.486;4.650;2023-05-20T00:48:19;102685.28;;;14.39;60.82
37852;BME280;23691;52.486;4.650;2023-05-20T00:50:46;102684.75;;;14.36;60.87
37852;BME280;23691;52.486;4.650;2023-05-20T00:53:11;102674.97;;;14.35;61.15
37852;BME280;23691;52.486;4.650;2023-05-20T00:55:38;102675.81;;;14.35;61.17
37852;BME280;23691;52.486;4.650;2023-05-20T00:58:03;102676.66;;;14.36;61.20
37852;BME280;23691;52.486;4.650;2023-05-20T01:00:28;102675.41;;;14.30;61.26
37852;BME280;23691;52.486;4.650;2023-05-20T01:02:54;102674.69;;;14.28;61.34
37852;BME280;23691;52.486;4.650;2023-05-20T01:05:20;102672.13;;;14.27;61.48
37852;BME280;23691;52.486;4.650;2023-05-20T01:07:46;102679.50;;;14.25;61.70
37852;BME280;23691;52.486;4.650;2023-05-20T01:10:11;102670.16;;;14.19;61.72
37852;BME280;23691;52.486;4.650;2023-05-20T01:12:45;102664.91;;;14.17;61.96
37852;BME280;23691;52.486;4.650;2023-05-20T01:15:14;102665.22;;;14.14;61.83
37852;BME280;23691;52.486;4.650;2023-05-20T01:17:51;102667.59;;;14.17;62.07
37852;BME280;23691;52.486;4.650;2023-05-20T01:20:21;102665.63;;;14.20;61.94
37852;BME280;23691;52.486;4.650;2023-05-20T01:22:49;102659.69;;;14.16;61.91
37852;BME280;23691;52.486;4.650;2023-05-20T01:25:16;102662.69;;;14.13;61.92
37852;BME280;23691;52.486;4.650;2023-05-20T01:27:42;102659.84;;;14.05;62.39
37852;BME280;23691;52.486;4.650;2023-05-20T01:30:08;102657.31;;;14.03;62.47
37852;BME280;23691;52.486;4.650;2023-05-20T01:32:36;102663.25;;;14.07;62.33
37852;BME280;23691;52.486;4.650;2023-05-20T01:35:03;102654.03;;;14.09;62.14
37852;BME280;23691;52.486;4.650;2023-05-20T01:37:30;102653.31;;;14.07;62.55
37852;BME280;23691;52.486;4.650;2023-05-20T01:39:56;102656.19;;;14.06;62.67
37852;BME280;23691;52.486;4.650;2023-05-20T01:42:22;102650.22;;;14.02;62.66
37852;BME280;23691;52.486;4.650;2023-05-20T01:44:49;102646.53;;;14.03;62.61
37852;BME280;23691;52.486;4.650;2023-05-20T01:47:15;102640.88;;;13.96;62.81
37852;BME280;23691;52.486;4.650;2023-05-20T01:49:40;102649.09;;;13.95;62.87
37852;BME280;23691;52.486;4.650;2023-05-20T01:52:06;102651.78;;;13.95;63.17
37852;BME280;23691;52.486;4.650;2023-05-20T01:54:31;102643.28;;;13.90;63.11
37852;BME280;23691;52.486;4.650;2023-05-20T01:56:56;102640.88;;;13.87;63.29
37852;BME280;23691;52.486;4.650;2023-05-20T01:59:22;102640.16;;;13.85;63.00
37852;BME280;23691;52.486;4.650;2023-05-20T02:01:47;102647.53;;;13.83;63.23
37852;BME280;23691;52.486;4.650;2023-05-20T02:04:12;102642.72;;;13.77;63.43
37852;BME280;23691;52.486;4.650;2023-05-20T02:06:38;102643.44;;;13.79;63.50
37852;BME280;23691;52.486;4.650;2023-05-20T02:09:04;102639.63;;;13.81;63.47
37852;BME280;23691;52.486;4.650;2023-05-20T02:11:29;102638.47;;;13.84;63.42
37852;BME280;23691;52.486;4.650;2023-05-20T02:13:55;102627.84;;;13.82;63.48
37852;BME280;23691;52.486;4.650;2023-05-20T02:16:20;102636.94;;;13.81;63.16
37852;BME280;23691;52.486;4.650;2023-05-20T02:18:45;102633.38;;;13.81;63.55
37852;BME280;23691;52.486;4.650;2023-05-20T02:21:11;102637.19;;;13.78;63.61
37852;BME280;23691;52.486;4.650;2023-05-20T02:23:36;102635.38;;;13.79;63.55
37852;BME280;23691;52.486;4.650;2023-05-20T02:26:01;102631.25;;;13.74;63.78
37852;BME280;23691;52.486;4.650;2023-05-20T02:28:27;102638.78;;;13.71;63.80
37852;BME280;23691;52.486;4.650;2023-05-20T02:30:52;102635.50;;;13.67;63.86
37852;BME280;23691;52.486;4.650;2023-05-20T02:33:18;102633.81;;;13.66;64.06
37852;BME280;23691;52.486;4.650;2023-05-20T02:35:43;102640.59;;;13.70;64.04
37852;BME280;23691;52.486;4.650;2023-05-20T02:38:10;102633.94;;;13.74;64.03
37852;BME280;23691;52.486;4.650;2023-05-20T02:40:35;102639.03;;;13.78;64.18
37852;BME280;23691;52.486;4.650;2023-05-20T02:43:01;102637.47;;;13.75;64.05
37852;BME280;23691;52.486;4.650;2023-05-20T02:45:26;102633.41;;;13.71;64.12
37852;BME280;23691;52.486;4.650;2023-05-20T02:47:52;102642.00;;;13.65;64.36
37852;BME280;23691;52.486;4.650;2023-05-20T02:50:17;102636.50;;;13.66;64.30
37852;BME280;23691;52.486;4.650;2023-05-20T02:52:42;102638.47;;;13.64;64.28
37852;BME280;23691;52.486;4.650;2023-05-20T02:55:10;102633.81;;;13.57;64.52
37852;BME280;23691;52.486;4.650;2023-05-20T02:57:35;102634.78;;;13.56;64.63
37852;BME280;23691;52.486;4.650;2023-05-20T03:00:04;102634.78;;;13.56;64.69
37852;BME280;23691;52.486;4.650;2023-05-20T03:02:30;102636.63;;;13.55;64.96
37852;BME280;23691;52.486;4.650;2023-05-20T03:04:56;102635.66;;;13.56;64.62
37852;BME280;23691;52.486;4.650;2023-05-20T03:07:22;102635.22;;;13.61;64.72
37852;BME280;23691;52.486;4.650;2023-05-20T03:09:47;102630.00;;;13.59;64.51
37852;BME280;23691;52.486;4.650;2023-05-20T03:12:13;102620.78;;;13.52;64.89
37852;BME280;23691;52.486;4.650;2023-05-20T03:14:39;102621.91;;;13.49;65.17
37852;BME280;23691;52.486;4.650;2023-05-20T03:17:04;102626.28;;;13.50;65.17
37852;BME280;23691;52.486;4.650;2023-05-20T03:19:30;102620.50;;;13.55;65.17
37852;BME280;23691;52.486;4.650;2023-05-20T03:21:55;102626.72;;;13.56;65.07
37852;BME280;23691;52.486;4.650;2023-05-20T03:24:22;102628.44;;;13.57;65.21
37852;BME280;23691;52.486;4.650;2023-05-20T03:26:47;102626.47;;;13.59;65.24
37852;BME280;23691;52.486;4.650;2023-05-20T03:29:13;102628.44;;;13.57;65.23
37852;BME280;23691;52.486;4.650;2023-05-20T03:31:38;102625.03;;;13.55;65.38
37852;BME280;23691;52.486;4.650;2023-05-20T03:34:04;102628.13;;;13.50;65.51
37852;BME280;23691;52.486;4.650;2023-05-20T03:36:29;102621.91;;;13.49;65.50
37852;BME280;23691;52.486;4.650;2023-05-20T03:38:55;102617.38;;;13.50;65.56
37852;BME280;23691;52.486;4.650;2023-05-20T03:41:20;102616.25;;;13.52;65.54
37852;BME280;23691;52.486;4.650;2023-05-20T03:43:46;102616.97;;;13.55;65.18
37852;BME280;23691;52.486;4.650;2023-05-20T03:46:11;102618.66;;;13.56;65.54
37852;BME280;23691;52.486;4.650;2023-05-20T03:48:37;102617.94;;;13.53;65.58
37852;BME280;23691;52.486;4.650;2023-05-20T03:51:02;102619.94;;;13.51;65.52
37852;BME280;23691;52.486;4.650;2023-05-20T03:53:27;102618.94;;;13.52;65.64
37852;BME280;23691;52.486;4.650;2023-05-20T03:55:53;102613.69;;;13.51;65.57
37852;BME280;23691;52.486;4.650;2023-05-20T03:58:18;102618.22;;;13.50;65.68
37852;BME280;23691;52.486;4.650;2023-05-20T04:00:45;102619.06;;;13.51;65.63
37852;BME280;23691;52.486;4.650;2023-05-20T04:03:11;102610.31;;;13.49;65.78
37852;BME280;23691;52.486;4.650;2023-05-20T04:05:37;102625.03;;;13.45;65.91
37852;BME280;23691;52.486;4.650;2023-05-20T04:08:03;102619.78;;;13.43;65.98
37852;BME280;23691;52.486;4.650;2023-05-20T04:10:29;102619.34;;;13.48;66.01
37852;BME280;23691;52.486;4.650;2023-05-20T04:12:56;102622.75;;;13.50;65.95
37852;BME280;23691;52.486;4.650;2023-05-20T04:15:22;102622.63;;;13.51;65.91
37852;BME280;23691;52.486;4.650;2023-05-20T04:17:48;102617.25;;;13.51;65.97
37852;BME280;23691;52.486;4.650;2023-05-20T04:20:14;102618.81;;;13.54;65.61
37852;BME280;23691;52.486;4.650;2023-05-20T04:22:40;102619.66;;;13.55;65.95
37852;BME280;23691;52.486;4.650;2023-05-20T04:25:06;102620.50;;;13.55;66.19
37852;BME280;23691;52.486;4.650;2023-05-20T04:27:32;102618.53;;;13.57;65.95
37852;BME280;23691;52.486;4.650;2023-05-20T04:30:02;102622.06;;;13.58;66.08
37852;BME280;23691;52.486;4.650;2023-05-20T04:32:28;102619.22;;;13.59;66.08
37852;BME280;23691;52.486;4.650;2023-05-20T04:34:54;102619.50;;;13.66;65.80
37852;BME280;23691;52.486;4.650;2023-05-20T04:37:20;102618.41;;;13.68;65.70
37852;BME280;23691;52.486;4.650;2023-05-20T04:39:46;102610.75;;;13.64;65.85
37852;BME280;23691;52.486;4.650;2023-05-20T04:42:14;102605.50;;;13.62;65.97
37852;BME280;23691;52.486;4.650;2023-05-20T04:44:39;102618.66;;;13.65;66.02
37852;BME280;23691;52.486;4.650;2023-05-20T04:47:04;102618.53;;;13.67;66.25
37852;BME280;23691;52.486;4.650;2023-05-20T04:49:32;102621.75;;;13.70;66.01
37852;BME280;23691;52.486;4.650;2023-05-20T04:51:57;102619.06;;;13.70;66.21
37852;BME280;23691;52.486;4.650;2023-05-20T04:54:23;102620.78;;;13.71;66.24
37852;BME280;23691;52.486;4.650;2023-05-20T04:56:49;102614.81;;;13.78;66.18
37852;BME280;23691;52.486;4.650;2023-05-20T04:59:15;102616.97;;;13.84;66.14
37852;BME280;23691;52.486;4.650;2023-05-20T05:01:40;102617.38;;;13.89;65.85
37852;BME280;23691;52.486;4.650;2023-05-20T05:04:06;102612.53;;;13.92;66.26
37852;BME280;23691;52.486;4.650;2023-05-20T05:06:31;102613.97;;;13.96;65.86
37852;BME280;23691;52.486;4.650;2023-05-20T05:08:56;102612.13;;;13.97;66.11
37852;BME280;23691;52.486;4.650;2023-05-20T05:11:22;102612.94;;;14.07;65.93
37852;BME280;23691;52.486;4.650;2023-05-20T05:13:47;102614.66;;;14.08;65.81
37852;BME280;23691;52.486;4.650;2023-05-20T05:16:12;102615.81;;;14.06;66.02
37852;BME280;23691;52.486;4.650;2023-05-20T05:18:38;102610.56;;;14.04;66.16
37852;BME280;23691;52.486;4.650;2023-05-20T05:21:05;102610.84;;;14.01;66.21
37852;BME280;23691;52.486;4.650;2023-05-20T05:23:31;102610.56;;;14.04;66.14
37852;BME280;23691;52.486;4.650;2023-05-20T05:25:57;102606.84;;;14.15;65.96
37852;BME280;23691;52.486;4.650;2023-05-20T05:28:22;102603.28;;;14.24;65.85
37852;BME280;23691;52.486;4.650;2023-05-20T05:30:48;102607.66;;;14.35;65.80
37852;BME280;23691;52.486;4.650;2023-05-20T05:33:14;102596.81;;;14.45;65.70
37852;BME280;23691;52.486;4.650;2023-05-20T05:35:43;102597.69;;;14.55;65.61
37852;BME280;23691;52.486;4.650;2023-05-20T05:38:08;102606.00;;;14.62;65.64
37852;BME280;23691;52.486;4.650;2023-05-20T05:40:34;102608.13;;;14.68;65.31
37852;BME280;23691;52.486;4.650;2023-05-20T05:43:00;102599.31;;;14.75;65.39
37852;BME280;23691;52.486;4.650;2023-05-20T05:45:25;102602.78;;;14.86;65.03
37852;BME280;23691;52.486;4.650;2023-05-20T05:47:51;102600.03;;;14.95;64.93
37852;BME280;23691;52.486;4.650;2023-05-20T05:50:16;102603.06;;;15.10;64.44
37852;BME280;23691;52.486;4.650;2023-05-20T05:52:42;102602.09;;;15.11;64.64
37852;BME280;23691;52.486;4.650;2023-05-20T05:55:08;102600.53;;;15.09;64.31
37852;BME280;23691;52.486;4.650;2023-05-20T05:57:34;102604.94;;;15.10;64.23
37852;BME280;23691;52.486;4.650;2023-05-20T06:00:00;102607.00;;;15.16;64.15
37852;BME280;23691;52.486;4.650;2023-05-20T06:02:25;102595.16;;;15.27;63.89
37852;BME280;23691;52.486;4.650;2023-05-20T06:04:51;102599.16;;;15.40;64.00
37852;BME280;23691;52.486;4.650;2023-05-20T06:07:16;102598.88;;;15.43;63.66
37852;BME280;23691;52.486;4.650;2023-05-20T06:09:43;102596.84;;;15.45;63.64
37852;BME280;23691;52.486;4.650;2023-05-20T06:12:08;102592.06;;;15.57;63.50
37852;BME280;23691;52.486;4.650;2023-05-20T06:14:33;102601.81;;;15.68;63.34
37852;BME280;23691;52.486;4.650;2023-05-20T06:16:59;102589.94;;;15.61;62.95
37852;BME280;23691;52.486;4.650;2023-05-20T06:19:24;102601.13;;;15.48;63.08
37852;BME280;23691;52.486;4.650;2023-05-20T06:21:50;102593.63;;;15.42;63.05
37852;BME280;23691;52.486;4.650;2023-05-20T06:24:15;102603.03;;;15.38;63.36
37852;BME280;23691;52.486;4.650;2023-05-20T06:26:40;102599.34;;;15.39;63.37
37852;BME280;23691;52.486;4.650;2023-05-20T06:29:06;102597.41;;;15.49;63.11
37852;BME280;23691;52.486;4.650;2023-05-20T06:31:31;102595.72;;;15.66;62.79
37852;BME280;23691;52.486;4.650;2023-05-20T06:33:56;102601.34;;;15.91;62.52
37852;BME280;23691;52.486;4.650;2023-05-20T06:36:22;102604.91;;;16.17;61.88
37852;BME280;23691;52.486;4.650;2023-05-20T06:38:47;102604.41;;;16.48;61.51
37852;BME280;23691;52.486;4.650;2023-05-20T06:41:12;102590.28;;;16.62;61.19
37852;BME280;23691;52.486;4.650;2023-05-20T06:43:38;102587.81;;;16.69;61.22
37852;BME280;23691;52.486;4.650;2023-05-20T06:46:05;102592.66;;;16.65;60.66
37852;BME280;23691;52.486;4.650;2023-05-20T06:48:30;102587.44;;;16.64;60.83
37852;BME280;23691;52.486;4.650;2023-05-20T06:50:56;102582.22;;;16.70;60.72
37852;BME280;23691;52.486;4.650;2023-05-20T06:53:21;102591.53;;;16.76;60.60
37852;BME280;23691;52.486;4.650;2023-05-20T06:55:46;102590.91;;;16.82;60.15
37852;BME280;23691;52.486;4.650;2023-05-20T06:58:12;102582.66;;;16.84;59.88
37852;BME280;23691;52.486;4.650;2023-05-20T07:00:37;102582.19;;;16.97;59.75
37852;BME280;23691;52.486;4.650;2023-05-20T07:03:03;102576.97;;;17.03;59.61
37852;BME280;23691;52.486;4.650;2023-05-20T07:05:29;102573.09;;;17.06;59.19
37852;BME280;23691;52.486;4.650;2023-05-20T07:07:55;102566.16;;;17.03;59.18
37852;BME280;23691;52.486;4.650;2023-05-20T07:10:21;102583.38;;;17.10;59.04
37852;BME280;23691;52.486;4.650;2023-05-20T07:12:46;102574.97;;;17.13;58.97
37852;BME280;23691;52.486;4.650;2023-05-20T07:15:11;102573.09;;;17.22;59.07
37852;BME280;23691;52.486;4.650;2023-05-20T07:17:37;102576.00;;;17.29;58.68
37852;BME280;23691;52.486;4.650;2023-05-20T07:20:02;102576.34;;;17.34;58.59
37852;BME280;23691;52.486;4.650;2023-05-20T07:22:28;102572.59;;;17.35;58.10
37852;BME280;23691;52.486;4.650;2023-05-20T07:24:54;102561.28;;;17.39;57.83
37852;BME280;23691;52.486;4.650;2023-05-20T07:27:19;102565.00;;;17.47;58.08
37852;BME280;23691;52.486;4.650;2023-05-20T07:29:44;102570.44;;;17.55;57.71
37852;BME280;23691;52.486;4.650;2023-05-20T07:32:10;102574.69;;;17.57;57.46
37852;BME280;23691;52.486;4.650;2023-05-20T07:34:35;102563.16;;;17.64;57.54
37852;BME280;23691;52.486;4.650;2023-05-20T07:37:01;102567.22;;;17.76;56.94
37852;BME280;23691;52.486;4.650;2023-05-20T07:39:26;102568.75;;;17.87;56.63
37852;BME280;23691;52.486;4.650;2023-05-20T07:41:52;102567.91;;;18.02;56.40
37852;BME280;23691;52.486;4.650;2023-05-20T07:44:17;102563.09;;;18.29;56.05
37852;BME280;23691;52.486;4.650;2023-05-20T07:46:43;102563.28;;;18.67;54.98
37852;BME280;23691;52.486;4.650;2023-05-20T07:49:08;102564.97;;;19.07;54.65
37852;BME280;23691;52.486;4.650;2023-05-20T07:51:34;102557.09;;;19.21;54.11
37852;BME280;23691;52.486;4.650;2023-05-20T07:53:59;102555.50;;;19.26;53.77
37852;BME280;23691;52.486;4.650;2023-05-20T07:56:25;102555.75;;;19.17;53.48
37852;BME280;23691;52.486;4.650;2023-05-20T07:58:52;102560.41;;;19.08;53.38
37852;BME280;23691;52.486;4.650;2023-05-20T08:01:18;102557.84;;;19.06;53.77
37852;BME280;23691;52.486;4.650;2023-05-20T08:03:43;102556.16;;;19.05;53.60
37852;BME280;23691;52.486;4.650;2023-05-20T08:06:08;102554.84;;;19.01;53.36
37852;BME280;23691;52.486;4.650;2023-05-20T08:08:34;102547.06;;;18.98;53.23
37852;BME280;23691;52.486;4.650;2023-05-20T08:11:00;102555.66;;;19.02;52.88
37852;BME280;23691;52.486;4.650;2023-05-20T08:13:25;102543.75;;;19.11;52.61
37852;BME280;23691;52.486;4.650;2023-05-20T08:15:54;102546.69;;;19.24;52.34
37852;BME280;23691;52.486;4.650;2023-05-20T08:18:19;102543.75;;;19.34;52.13
37852;BME280;23691;52.486;4.650;2023-05-20T08:20:45;102548.25;;;19.42;52.21
37852;BME280;23691;52.486;4.650;2023-05-20T08:23:10;102547.75;;;19.61;51.91
37852;BME280;23691;52.486;4.650;2023-05-20T08:25:35;102553.66;;;19.50;51.87
37852;BME280;23691;52.486;4.650;2023-05-20T08:28:02;102542.59;;;19.51;51.66
37852;BME280;23691;52.486;4.650;2023-05-20T08:30:29;102535.53;;;19.65;51.45
37852;BME280;23691;52.486;4.650;2023-05-20T08:32:55;102541.56;;;19.76;50.94
37852;BME280;23691;52.486;4.650;2023-05-20T08:35:21;102537.75;;;19.85;50.90
37852;BME280;23691;52.486;4.650;2023-05-20T08:37:47;102542.16;;;20.01;50.53
37852;BME280;23691;52.486;4.650;2023-05-20T08:40:13;102540.66;;;20.28;50.44
37852;BME280;23691;52.486;4.650;2023-05-20T08:42:47;102542.81;;;20.62;49.67
37852;BME280;23691;52.486;4.650;2023-05-20T08:45:16;102534.06;;;20.82;49.60
37852;BME280;23691;52.486;4.650;2023-05-20T08:47:42;102533.34;;;20.73;49.43
37852;BME280;23691;52.486;4.650;2023-05-20T08:50:09;102531.75;;;20.64;49.55
37852;BME280;23691;52.486;4.650;2023-05-20T08:52:37;102531.59;;;20.65;49.35
37852;BME280;23691;52.486;4.650;2023-05-20T08:55:06;102534.09;;;20.52;49.59
37852;BME280;23691;52.486;4.650;2023-05-20T08:57:34;102528.75;;;20.44;49.55
37852;BME280;23691;52.486;4.650;2023-05-20T09:00:01;102528.50;;;20.38;49.16
37852;BME280;23691;52.486;4.650;2023-05-20T09:02:35;102518.84;;;20.36;49.58
37852;BME280;23691;52.486;4.650;2023-05-20T09:05:01;102513.19;;;20.37;49.46
37852;BME280;23691;52.486;4.650;2023-05-20T09:07:27;102514.97;;;20.45;49.46
37852;BME280;23691;52.486;4.650;2023-05-20T09:09:53;102514.53;;;20.56;49.62
37852;BME280;23691;52.486;4.650;2023-05-20T09:12:19;102515.91;;;20.67;49.41
37852;BME280;23691;52.486;4.650;2023-05-20T09:14:45;102516.19;;;20.72;49.22
37852;BME280;23691;52.486;4.650;2023-05-20T09:17:11;102513.06;;;20.75;48.79
37852;BME280;23691;52.486;4.650;2023-05-20T09:19:36;102513.75;;;20.77;48.78
37852;BME280;23691;52.486;4.650;2023-05-20T09:22:02;102502.25;;;20.82;48.54
37852;BME280;23691;52.486;4.650;2023-05-20T09:24:28;102498.84;;;20.95;48.09
37852;BME280;23691;52.486;4.650;2023-05-20T09:26:53;102503.50;;;21.01;47.88
37852;BME280;23691;52.486;4.650;2023-05-20T09:29:18;102496.19;;;21.01;47.34
37852;BME280;23691;52.486;4.650;2023-05-20T09:31:45;102489.31;;;21.06;47.19
37852;BME280;23691;52.486;4.650;2023-05-20T09:34:11;102494.25;;;21.17;46.76
37852;BME280;23691;52.486;4.650;2023-05-20T09:36:38;102487.94;;;21.16;46.35
37852;BME280;23691;52.486;4.650;2023-05-20T09:39:05;102490.34;;;21.26;46.53
37852;BME280;23691;52.486;4.650;2023-05-20T09:41:36;102488.28;;;21.28;46.22
37852;BME280;23691;52.486;4.650;2023-05-20T09:44:02;102483.88;;;21.27;45.71
37852;BME280;23691;52.486;4.650;2023-05-20T09:46:29;102481.19;;;21.34;46.09
37852;BME280;23691;52.486;4.650;2023-05-20T09:48:55;102486.94;;;21.39;45.54
37852;BME280;23691;52.486;4.650;2023-05-20T09:51:22;102474.91;;;21.33;44.87
37852;BME280;23691;52.486;4.650;2023-05-20T09:53:49;102483.31;;;21.32;45.10
37852;BME280;23691;52.486;4.650;2023-05-20T09:56:17;102479.78;;;21.38;45.01
37852;BME280;23691;52.486;4.650;2023-05-20T09:58:44;102477.06;;;21.38;45.01
37852;BME280;23691;52.486;4.650;2023-05-20T10:01:10;102479.88;;;21.44;44.64
37852;BME280;23691;52.486;4.650;2023-05-20T10:03:35;102469.22;;;21.50;44.72
37852;BME280;23691;52.486;4.650;2023-05-20T10:09:00;102471.41;;;21.61;44.74
37852;BME280;23691;52.486;4.650;2023-05-20T10:11:34;102467.06;;;21.73;44.64
37852;BME280;23691;52.486;4.650;2023-05-20T10:19:31;102456.69;;;21.90;43.53
37852;BME280;23691;52.486;4.650;2023-05-20T10:22:05;102444.38;;;21.94;43.44
37852;BME280;23691;52.486;4.650;2023-05-20T10:24:37;102436.63;;;21.98;43.32
37852;BME280;23691;52.486;4.650;2023-05-20T10:27:10;102440.84;;;22.00;43.08
37852;BME280;23691;52.486;4.650;2023-05-20T10:29:56;102437.50;;;22.05;41.96
37852;BME280;23691;52.486;4.650;2023-05-20T10:34:51;102426.34;;;21.93;41.70
37852;BME280;23691;52.486;4.650;2023-05-20T10:37:24;102424.53;;;22.14;41.29
37852;BME280;23691;52.486;4.650;2023-05-20T10:39:51;102427.50;;;22.19;41.01
37852;BME280;23691;52.486;4.650;2023-05-20T10:42:26;102429.47;;;22.32;40.74
37852;BME280;23691;52.486;4.650;2023-05-20T10:44:52;102418.78;;;22.30;40.11
37852;BME280;23691;52.486;4.650;2023-05-20T10:47:17;102417.13;;;22.42;40.29
37852;BME280;23691;52.486;4.650;2023-05-20T10:49:43;102427.03;;;22.63;40.07
37852;BME280;23691;52.486;4.650;2023-05-20T10:52:10;102418.44;;;22.73;39.84
37852;BME280;23691;52.486;4.650;2023-05-20T10:54:57;102424.53;;;22.68;39.56
37852;BME280;23691;52.486;4.650;2023-05-20T10:57:26;102412.16;;;22.86;39.61
37852;BME280;23691;52.486;4.650;2023-05-20T10:59:51;102403.81;;;23.01;38.81
37852;BME280;23691;52.486;4.650;2023-05-20T11:02:18;102400.66;;;23.37;38.78
37852;BME280;23691;52.486;4.650;2023-05-20T11:04:44;102402.91;;;23.67;38.51
37852;BME280;23691;52.486;4.650;2023-05-20T11:07:09;102391.53;;;23.83;37.99
37852;BME280;23691;52.486;4.650;2023-05-20T11:09:35;102386.38;;;24.07;37.84
37852;BME280;23691;52.486;4.650;2023-05-20T11:12:01;102394.09;;;24.23;37.42
37852;BME280;23691;52.486;4.650;2023-05-20T11:14:27;102382.47;;;24.34;37.71
37852;BME280;23691;52.486;4.650;2023-05-20T11:16:58;102388.13;;;24.39;37.68
37852;BME280;23691;52.486;4.650;2023-05-20T11:19:24;102393.53;;;24.53;37.38
37852;BME280;23691;52.486;4.650;2023-05-20T11:21:51;102396.97;;;24.35;37.77
37852;BME280;23691;52.486;4.650;2023-05-20T11:24:26;102380.50;;;24.48;37.22
37852;BME280;23691;52.486;4.650;2023-05-20T11:26:55;102369.72;;;24.53;37.13
37852;BME280;23691;52.486;4.650;2023-05-20T11:29:21;102390.59;;;24.54;37.29
37852;BME280;23691;52.486;4.650;2023-05-20T11:31:50;102390.09;;;24.64;36.92
37852;BME280;23691;52.486;4.650;2023-05-20T11:34:19;102378.09;;;24.65;36.79
37852;BME280;23691;52.486;4.650;2023-05-20T11:36:45;102371.28;;;24.74;36.56
37852;BME280;23691;52.486;4.650;2023-05-20T11:39:11;102374.03;;;24.99;36.37
37852;BME280;23691;52.486;4.650;2023-05-20T11:41:38;102370.56;;;25.11;36.00
37852;BME280;23691;52.486;4.650;2023-05-20T11:44:03;102377.75;;;25.05;36.34
37852;BME280;23691;52.486;4.650;2023-05-20T11:46:29;102369.84;;;25.15;35.92
37852;BME280;23691;52.486;4.650;2023-05-20T11:48:56;102367.78;;;25.17;35.55
37852;BME280;23691;52.486;4.650;2023-05-20T11:51:25;102375.47;;;24.77;36.47
37852;BME280;23691;52.486;4.650;2023-05-20T11:53:51;102375.31;;;24.97;35.77
37852;BME280;23691;52.486;4.650;2023-05-20T11:56:16;102374.63;;;25.26;35.38
37852;BME280;23691;52.486;4.650;2023-05-20T11:58:43;102367.97;;;25.41;34.91
37852;BME280;23691;52.486;4.650;2023-05-20T12:01:08;102375.34;;;25.15;35.46
37852;BME280;23691;52.486;4.650;2023-05-20T12:03:35;102370.78;;;24.84;35.49
37852;BME280;23691;52.486;4.650;2023-05-20T12:06:01;102371.44;;;25.04;35.31
37852;BME280;23691;52.486;4.650;2023-05-20T12:08:28;102359.50;;;24.74;35.26
37852;BME280;23691;52.486;4.650;2023-05-20T12:10:53;102358.75;;;24.85;35.03
37852;BME280;23691;52.486;4.650;2023-05-20T12:13:19;102352.34;;;25.23;34.66
37852;BME280;23691;52.486;4.650;2023-05-20T12:15:44;102359.28;;;25.25;35.07
37852;BME280;23691;52.486;4.650;2023-05-20T12:18:09;102350.91;;;25.20;35.31
37852;BME280;23691;52.486;4.650;2023-05-20T12:20:35;102354.38;;;25.27;35.05
37852;BME280;23691;52.486;4.650;2023-05-20T12:23:01;102344.66;;;25.32;34.95
37852;BME280;23691;52.486;4.650;2023-05-20T12:25:27;102336.97;;;24.97;35.42
37852;BME280;23691;52.486;4.650;2023-05-20T12:27:53;102336.66;;;24.87;35.37
37852;BME280;23691;52.486;4.650;2023-05-20T12:30:19;102343.88;;;24.81;35.31
37852;BME280;23691;52.486;4.650;2023-05-20T12:32:46;102330.69;;;24.71;35.70
37852;BME280;23691;52.486;4.650;2023-05-20T12:35:12;102347.50;;;24.36;35.83
37852;BME280;23691;52.486;4.650;2023-05-20T12:37:38;102339.56;;;24.28;35.92
37852;BME280;23691;52.486;4.650;2023-05-20T12:40:05;102333.69;;;24.88;35.00
37852;BME280;23691;52.486;4.650;2023-05-20T12:42:34;102320.88;;;25.51;34.46
37852;BME280;23691;52.486;4.650;2023-05-20T12:45:00;102322.91;;;25.92;33.72
37852;BME280;23691;52.486;4.650;2023-05-20T12:47:25;102329.84;;;25.58;34.14
37852;BME280;23691;52.486;4.650;2023-05-20T12:49:50;102328.91;;;25.64;33.68
37852;BME280;23691;52.486;4.650;2023-05-20T12:52:16;102327.03;;;25.46;34.18
37852;BME280;23691;52.486;4.650;2023-05-20T12:54:41;102319.78;;;25.70;34.16
37852;BME280;23691;52.486;4.650;2023-05-20T12:57:06;102318.19;;;25.99;33.80